createdAt,value
2016-12-06T00:00:27.768Z,20.48
2016-12-06T00:01:08.313Z,20.46
2016-12-06T00:01:48.873Z,20.48
2016-12-06T00:02:29.395Z,20.49
2016-12-06T00:03:09.915Z,20.49
2016-12-06T00:03:50.439Z,20.48
2016-12-06T00:04:30.992Z,20.4
2016-12-06T00:05:11.516Z,20.42
2016-12-06T00:05:52.045Z,20.52
2016-12-06T00:06:32.563Z,20.48
2016-12-06T00:07:13.102Z,20.46
2016-12-06T00:07:53.632Z,20.46
2016-12-06T00:08:34.124Z,20.49
2016-12-06T00:09:14.677Z,20.44
2016-12-06T00:09:55.196Z,20.44
2016-12-06T00:10:35.718Z,20.5
2016-12-06T00:11:16.255Z,20.44
2016-12-06T00:11:56.788Z,20.48
2016-12-06T00:12:37.399Z,20.5
2016-12-06T00:13:17.943Z,20.53
2016-12-06T00:13:58.477Z,20.5
2016-12-06T00:14:39.008Z,20.5
2016-12-06T00:15:19.542Z,20.49
2016-12-06T00:16:00.095Z,20.49
2016-12-06T00:16:40.681Z,20.46
2016-12-06T00:17:21.252Z,20.52
2016-12-06T00:18:01.779Z,20.42
2016-12-06T00:18:42.294Z,20.53
2016-12-06T00:19:22.823Z,20.44
2016-12-06T00:20:03.378Z,20.46
2016-12-06T00:20:43.975Z,20.48
2016-12-06T00:21:24.511Z,20.52
2016-12-06T00:22:05.028Z,20.5
2016-12-06T00:22:45.608Z,20.49
2016-12-06T00:23:26.080Z,20.52
2016-12-06T00:24:06.661Z,20.52
2016-12-06T00:24:47.180Z,20.46
2016-12-06T00:25:27.737Z,20.44
2016-12-06T00:26:08.230Z,20.44
2016-12-06T00:26:48.758Z,20.46
2016-12-06T00:27:29.279Z,20.46
2016-12-06T00:28:09.821Z,20.46
2016-12-06T00:28:50.365Z,20.49
2016-12-06T00:29:30.882Z,20.5
2016-12-06T00:30:11.514Z,20.5
2016-12-06T00:30:51.973Z,20.48
2016-12-06T00:31:32.585Z,20.49
2016-12-06T00:32:13.127Z,20.46
2016-12-06T00:32:53.658Z,20.46
2016-12-06T00:33:34.198Z,20.49
2016-12-06T00:34:14.778Z,20.49
2016-12-06T00:34:55.333Z,20.5
2016-12-06T00:35:35.929Z,20.46
2016-12-06T00:36:16.477Z,20.46
2016-12-06T00:36:57.003Z,20.46
2016-12-06T00:37:37.547Z,20.5
2016-12-06T00:38:18.094Z,20.49
2016-12-06T00:38:58.643Z,20.48
2016-12-06T00:39:39.168Z,20.49
2016-12-06T00:40:19.905Z,20.44
2016-12-06T00:41:00.436Z,20.46
2016-12-06T00:41:40.954Z,20.52
2016-12-06T00:42:21.473Z,20.5
2016-12-06T00:43:01.991Z,20.48
2016-12-06T00:43:42.514Z,20.49
2016-12-06T00:44:23.062Z,20.49
2016-12-06T00:45:03.633Z,20.52
2016-12-06T00:45:44.148Z,20.48
2016-12-06T00:46:24.656Z,20.52
2016-12-06T00:47:05.181Z,20.49
2016-12-06T00:47:45.698Z,20.48
2016-12-06T00:48:26.262Z,20.48
2016-12-06T00:49:06.844Z,20.52
2016-12-06T00:49:47.384Z,20.46
2016-12-06T00:50:27.900Z,20.53
2016-12-06T00:51:08.459Z,20.52
2016-12-06T00:51:48.988Z,20.46
2016-12-06T00:52:29.588Z,20.44
2016-12-06T00:53:10.147Z,20.46
2016-12-06T00:53:50.687Z,20.49
2016-12-06T00:54:31.231Z,20.46
2016-12-06T00:55:11.745Z,20.46
2016-12-06T00:55:52.334Z,20.46
2016-12-06T00:56:32.851Z,20.42
2016-12-06T00:57:13.466Z,20.46
2016-12-06T00:57:54.003Z,20.46
2016-12-06T00:58:34.591Z,20.48
2016-12-06T00:59:15.131Z,20.44
2016-12-06T00:59:55.718Z,20.49
2016-12-06T01:00:36.240Z,20.49
2016-12-06T01:01:16.823Z,20.48
2016-12-06T01:01:57.439Z,20.46
2016-12-06T01:02:37.933Z,20.46
2016-12-06T01:03:18.499Z,20.44
2016-12-06T01:03:59.043Z,20.46
2016-12-06T01:04:39.639Z,20.42
2016-12-06T01:05:20.157Z,20.46
2016-12-06T01:06:00.724Z,20.49
2016-12-06T01:06:41.281Z,20.49
2016-12-06T01:07:21.833Z,20.42
2016-12-06T01:08:02.367Z,20.4
2016-12-06T01:08:42.878Z,20.49
2016-12-06T01:09:23.419Z,20.44
2016-12-06T01:10:03.974Z,20.48
2016-12-06T01:10:44.522Z,20.4
2016-12-06T01:11:25.047Z,20.42
2016-12-06T01:12:05.630Z,20.49
2016-12-06T01:12:46.155Z,20.46
2016-12-06T01:13:26.745Z,20.49
2016-12-06T01:14:07.321Z,20.48
2016-12-06T01:14:47.817Z,20.52
2016-12-06T01:15:28.400Z,20.42
2016-12-06T01:16:08.943Z,20.49
2016-12-06T01:16:49.535Z,20.48
2016-12-06T01:17:30.042Z,20.46
2016-12-06T01:18:10.618Z,20.48
2016-12-06T01:18:51.151Z,20.39
2016-12-06T01:19:31.690Z,20.39
2016-12-06T01:20:12.268Z,20.44
2016-12-06T01:20:52.825Z,20.39
2016-12-06T01:21:33.383Z,20.36
2016-12-06T01:22:13.921Z,20.42
2016-12-06T01:22:54.504Z,20.48
2016-12-06T01:23:35.039Z,20.42
2016-12-06T01:24:15.573Z,20.44
2016-12-06T01:24:56.188Z,20.49
2016-12-06T01:25:36.751Z,20.42
2016-12-06T01:26:17.297Z,20.42
2016-12-06T01:26:57.862Z,20.37
2016-12-06T01:27:38.435Z,20.46
2016-12-06T01:28:18.956Z,20.44
2016-12-06T01:28:59.503Z,20.42
2016-12-06T01:29:40.055Z,20.44
2016-12-06T01:30:20.574Z,20.46
2016-12-06T01:31:01.098Z,20.46
2016-12-06T01:31:41.610Z,20.49
2016-12-06T01:32:22.123Z,20.48
2016-12-06T01:33:02.661Z,20.46
2016-12-06T01:33:43.181Z,20.44
2016-12-06T01:34:23.715Z,20.44
2016-12-06T01:35:04.304Z,20.44
2016-12-06T01:35:44.889Z,20.44
2016-12-06T01:36:25.447Z,20.42
2016-12-06T01:37:05.977Z,20.42
2016-12-06T01:37:46.543Z,20.49
2016-12-06T01:38:27.068Z,20.44
2016-12-06T01:39:07.612Z,20.42
2016-12-06T01:39:48.247Z,20.42
2016-12-06T01:40:28.814Z,20.48
2016-12-06T01:41:09.347Z,20.48
2016-12-06T01:41:49.939Z,20.46
2016-12-06T01:42:30.575Z,20.39
2016-12-06T01:43:11.114Z,20.48
2016-12-06T01:43:51.781Z,20.42
2016-12-06T01:44:32.321Z,20.42
2016-12-06T01:45:12.852Z,20.44
2016-12-06T01:45:53.370Z,20.39
2016-12-06T01:46:33.889Z,20.37
2016-12-06T01:47:14.412Z,20.39
2016-12-06T01:47:54.967Z,20.48
2016-12-06T01:48:35.542Z,20.49
2016-12-06T01:49:16.062Z,20.49
2016-12-06T01:49:56.609Z,20.48
2016-12-06T01:50:37.123Z,20.42
2016-12-06T01:51:17.662Z,20.4
2016-12-06T01:51:58.226Z,20.48
2016-12-06T01:52:38.756Z,20.37
2016-12-06T01:53:19.332Z,20.48
2016-12-06T01:53:59.878Z,20.46
2016-12-06T01:54:40.410Z,20.44
2016-12-06T01:55:20.962Z,20.46
2016-12-06T01:56:01.484Z,20.37
2016-12-06T01:56:42.003Z,20.34
2016-12-06T01:57:22.547Z,20.44
2016-12-06T01:58:03.073Z,20.42
2016-12-06T01:58:43.610Z,20.39
2016-12-06T01:59:24.147Z,20.44
2016-12-06T02:00:04.675Z,20.4
2016-12-06T02:00:45.211Z,20.39
2016-12-06T02:01:25.725Z,20.37
2016-12-06T02:02:06.279Z,20.44
2016-12-06T02:02:46.816Z,20.46
2016-12-06T02:03:27.368Z,20.49
2016-12-06T02:04:07.903Z,20.37
2016-12-06T02:04:48.441Z,20.49
2016-12-06T02:05:28.969Z,20.46
2016-12-06T02:06:09.491Z,20.39
2016-12-06T02:06:50.009Z,20.46
2016-12-06T02:07:30.535Z,20.48
2016-12-06T02:08:11.073Z,20.42
2016-12-06T02:08:51.611Z,20.44
2016-12-06T02:09:32.113Z,20.39
2016-12-06T02:10:12.649Z,20.42
2016-12-06T02:10:53.165Z,20.39
2016-12-06T02:11:33.687Z,20.42
2016-12-06T02:12:14.231Z,20.37
2016-12-06T02:12:54.762Z,20.44
2016-12-06T02:13:35.284Z,20.44
2016-12-06T02:14:15.811Z,20.39
2016-12-06T02:14:56.338Z,20.44
2016-12-06T02:15:36.844Z,20.4
2016-12-06T02:16:17.363Z,20.42
2016-12-06T02:16:57.869Z,20.39
2016-12-06T02:17:38.410Z,20.48
2016-12-06T02:18:18.963Z,20.46
2016-12-06T02:18:59.491Z,20.44
2016-12-06T02:19:40.040Z,20.44
2016-12-06T02:20:20.588Z,20.48
2016-12-06T02:21:01.136Z,20.37
2016-12-06T02:21:41.684Z,20.39
2016-12-06T02:22:22.260Z,20.36
2016-12-06T02:23:02.794Z,20.46
2016-12-06T02:23:43.333Z,20.42
2016-12-06T02:24:23.838Z,20.4
2016-12-06T02:25:04.344Z,20.44
2016-12-06T02:25:44.883Z,20.39
2016-12-06T02:26:25.396Z,20.46
2016-12-06T02:27:05.952Z,20.44
2016-12-06T02:27:46.503Z,20.4
2016-12-06T02:28:27.041Z,20.4
2016-12-06T02:29:07.595Z,20.44
2016-12-06T02:29:48.116Z,20.39
2016-12-06T02:30:28.648Z,20.44
2016-12-06T02:31:09.175Z,20.4
2016-12-06T02:31:49.705Z,20.44
2016-12-06T02:32:30.220Z,20.42
2016-12-06T02:33:10.734Z,20.44
2016-12-06T02:33:51.264Z,20.44
2016-12-06T02:34:31.797Z,20.4
2016-12-06T02:35:12.314Z,20.4
2016-12-06T02:35:52.845Z,20.42
2016-12-06T02:36:33.352Z,20.42
2016-12-06T02:37:13.901Z,20.36
2016-12-06T02:37:54.432Z,20.36
2016-12-06T02:38:34.973Z,20.37
2016-12-06T02:39:15.523Z,20.48
2016-12-06T02:39:56.071Z,20.36
2016-12-06T02:40:36.615Z,20.49
2016-12-06T02:41:17.152Z,20.37
2016-12-06T02:41:57.670Z,20.44
2016-12-06T02:42:38.210Z,20.42
2016-12-06T02:43:18.759Z,20.39
2016-12-06T02:43:59.300Z,20.46
2016-12-06T02:44:39.813Z,20.46
2016-12-06T02:45:20.329Z,20.4
2016-12-06T02:46:00.857Z,20.46
2016-12-06T02:46:41.421Z,20.42
2016-12-06T02:47:21.960Z,20.44
2016-12-06T02:48:02.532Z,20.46
2016-12-06T02:48:43.050Z,20.44
2016-12-06T02:49:23.563Z,20.42
2016-12-06T02:50:04.084Z,20.4
2016-12-06T02:50:44.590Z,20.37
2016-12-06T02:51:25.120Z,20.34
2016-12-06T02:52:05.665Z,20.39
2016-12-06T02:52:46.204Z,20.44
2016-12-06T02:53:26.741Z,20.39
2016-12-06T02:54:07.242Z,20.42
2016-12-06T02:54:47.756Z,20.42
2016-12-06T02:55:28.324Z,20.42
2016-12-06T02:56:08.865Z,20.37
2016-12-06T02:56:49.384Z,20.42
2016-12-06T02:57:29.912Z,20.44
2016-12-06T02:58:10.440Z,20.39
2016-12-06T02:58:50.947Z,20.37
2016-12-06T02:59:31.449Z,20.42
2016-12-06T03:00:11.970Z,20.42
2016-12-06T03:00:52.577Z,20.4
2016-12-06T03:01:33.100Z,20.42
2016-12-06T03:02:13.628Z,20.44
2016-12-06T03:02:54.148Z,20.4
2016-12-06T03:03:34.725Z,20.36
2016-12-06T03:04:15.268Z,20.46
2016-12-06T03:04:55.825Z,20.49
2016-12-06T03:05:36.383Z,20.44
2016-12-06T03:06:16.920Z,20.48
2016-12-06T03:06:57.483Z,20.42
2016-12-06T03:07:38.055Z,20.48
2016-12-06T03:08:18.573Z,20.48
2016-12-06T03:08:59.131Z,20.48
2016-12-06T03:09:39.689Z,20.44
2016-12-06T03:10:20.224Z,20.37
2016-12-06T03:11:00.760Z,20.44
2016-12-06T03:11:41.288Z,20.42
2016-12-06T03:12:21.841Z,20.37
2016-12-06T03:13:02.332Z,20.4
2016-12-06T03:13:42.862Z,20.42
2016-12-06T03:14:23.398Z,20.42
2016-12-06T03:15:03.918Z,20.4
2016-12-06T03:15:44.461Z,20.4
2016-12-06T03:16:24.994Z,20.42
2016-12-06T03:17:05.520Z,20.46
2016-12-06T03:17:46.055Z,20.44
2016-12-06T03:18:26.581Z,20.4
2016-12-06T03:19:07.105Z,20.42
2016-12-06T03:19:47.621Z,20.46
2016-12-06T03:20:28.157Z,20.46
2016-12-06T03:21:08.664Z,20.39
2016-12-06T03:21:49.185Z,20.4
2016-12-06T03:22:29.712Z,20.34
2016-12-06T03:23:10.238Z,20.42
2016-12-06T03:23:50.767Z,20.33
2016-12-06T03:24:31.301Z,20.42
2016-12-06T03:25:11.829Z,20.48
2016-12-06T03:25:52.355Z,20.46
2016-12-06T03:26:32.920Z,20.33
2016-12-06T03:27:13.426Z,20.39
2016-12-06T03:27:53.975Z,20.39
2016-12-06T03:28:34.455Z,20.37
2016-12-06T03:29:14.982Z,20.34
2016-12-06T03:29:55.515Z,20.34
2016-12-06T03:30:36.038Z,20.39
2016-12-06T03:31:16.550Z,20.42
2016-12-06T03:31:57.106Z,20.44
2016-12-06T03:32:37.615Z,20.39
2016-12-06T03:33:18.131Z,20.4
2016-12-06T03:33:58.669Z,20.42
2016-12-06T03:34:39.209Z,20.37
2016-12-06T03:35:19.695Z,20.44
2016-12-06T03:36:00.216Z,20.4
2016-12-06T03:36:40.773Z,20.39
2016-12-06T03:37:21.307Z,20.34
2016-12-06T03:38:01.829Z,20.42
2016-12-06T03:38:42.355Z,20.39
2016-12-06T03:39:22.888Z,20.34
2016-12-06T03:40:03.420Z,20.42
2016-12-06T03:40:43.976Z,20.34
2016-12-06T03:41:24.444Z,20.37
2016-12-06T03:42:04.969Z,20.42
2016-12-06T03:42:45.511Z,20.4
2016-12-06T03:43:26.050Z,20.36
2016-12-06T03:44:06.565Z,20.42
2016-12-06T03:44:47.146Z,20.34
2016-12-06T03:45:27.674Z,20.42
2016-12-06T03:46:08.181Z,20.36
2016-12-06T03:46:48.740Z,20.33
2016-12-06T03:47:29.352Z,20.42
2016-12-06T03:48:09.855Z,20.29
2016-12-06T03:48:50.353Z,20.34
2016-12-06T03:49:30.877Z,20.27
2016-12-06T03:50:11.407Z,20.44
2016-12-06T03:50:51.928Z,20.36
2016-12-06T03:51:32.444Z,20.4
2016-12-06T03:52:12.958Z,20.39
2016-12-06T03:52:53.471Z,20.39
2016-12-06T03:53:34.007Z,20.3
2016-12-06T03:54:14.504Z,20.37
2016-12-06T03:54:55.041Z,20.46
2016-12-06T03:55:35.567Z,20.39
2016-12-06T03:56:16.112Z,20.34
2016-12-06T03:56:56.610Z,20.34
2016-12-06T03:57:37.151Z,20.4
2016-12-06T03:58:17.698Z,20.34
2016-12-06T03:58:58.210Z,20.42
2016-12-06T03:59:38.749Z,20.46
2016-12-06T04:00:19.285Z,20.36
2016-12-06T04:00:59.786Z,20.44
2016-12-06T04:01:40.323Z,20.44
2016-12-06T04:02:20.853Z,20.33
2016-12-06T04:03:01.381Z,20.42
2016-12-06T04:03:41.909Z,20.36
2016-12-06T04:04:22.487Z,20.4
2016-12-06T04:05:03.023Z,20.42
2016-12-06T04:05:43.559Z,20.44
2016-12-06T04:06:24.087Z,20.39
2016-12-06T04:07:04.623Z,20.48
2016-12-06T04:07:45.130Z,20.48
2016-12-06T04:08:25.656Z,20.32
2016-12-06T04:09:06.174Z,20.37
2016-12-06T04:09:46.712Z,20.4
2016-12-06T04:10:27.303Z,20.37
2016-12-06T04:11:07.851Z,20.33
2016-12-06T04:11:48.393Z,20.34
2016-12-06T04:12:28.927Z,20.34
2016-12-06T04:13:09.448Z,20.4
2016-12-06T04:13:50.022Z,20.37
2016-12-06T04:14:30.547Z,20.36
2016-12-06T04:15:11.066Z,20.34
2016-12-06T04:15:51.574Z,20.36
2016-12-06T04:16:32.092Z,20.44
2016-12-06T04:17:12.623Z,20.4
2016-12-06T04:17:53.184Z,20.39
2016-12-06T04:18:33.722Z,20.44
2016-12-06T04:19:14.274Z,20.33
2016-12-06T04:19:54.754Z,20.29
2016-12-06T04:20:35.279Z,20.36
2016-12-06T04:21:15.835Z,20.4
2016-12-06T04:21:56.359Z,20.34
2016-12-06T04:22:36.866Z,20.39
2016-12-06T04:23:17.391Z,20.34
2016-12-06T04:23:57.923Z,20.37
2016-12-06T04:24:38.435Z,20.48
2016-12-06T04:25:18.960Z,20.34
2016-12-06T04:25:59.500Z,20.39
2016-12-06T04:26:40.050Z,20.37
2016-12-06T04:27:20.592Z,20.39
2016-12-06T04:28:01.117Z,20.36
2016-12-06T04:28:41.688Z,20.37
2016-12-06T04:29:22.214Z,20.4
2016-12-06T04:30:02.748Z,20.36
2016-12-06T04:30:43.269Z,20.36
2016-12-06T04:31:23.769Z,20.34
2016-12-06T04:32:04.298Z,20.36
2016-12-06T04:32:44.848Z,20.39
2016-12-06T04:33:25.378Z,20.42
2016-12-06T04:34:05.895Z,20.36
2016-12-06T04:34:46.417Z,20.37
2016-12-06T04:35:26.939Z,20.42
2016-12-06T04:36:07.453Z,20.44
2016-12-06T04:36:47.989Z,20.37
2016-12-06T04:37:28.570Z,20.34
2016-12-06T04:38:09.100Z,20.3
2016-12-06T04:38:49.624Z,20.34
2016-12-06T04:39:30.163Z,20.29
2016-12-06T04:40:10.691Z,20.29
2016-12-06T04:40:51.216Z,20.29
2016-12-06T04:41:31.756Z,20.3
2016-12-06T04:42:12.283Z,20.33
2016-12-06T04:42:52.811Z,20.3
2016-12-06T04:43:33.336Z,20.34
2016-12-06T04:44:13.861Z,20.34
2016-12-06T04:44:54.381Z,20.34
2016-12-06T04:45:34.906Z,20.33
2016-12-06T04:46:15.426Z,20.29
2016-12-06T04:46:55.927Z,20.29
2016-12-06T04:47:36.464Z,20.3
2016-12-06T04:48:16.986Z,20.3
2016-12-06T04:48:57.556Z,20.33
2016-12-06T04:49:38.083Z,20.32
2016-12-06T04:50:18.607Z,20.34
2016-12-06T04:50:59.183Z,20.33
2016-12-06T04:51:39.702Z,20.3
2016-12-06T04:52:20.250Z,20.32
2016-12-06T04:53:00.802Z,20.34
2016-12-06T04:53:41.336Z,20.3
2016-12-06T04:54:21.863Z,20.34
2016-12-06T04:55:02.411Z,20.32
2016-12-06T04:55:42.948Z,20.32
2016-12-06T04:56:23.460Z,20.27
2016-12-06T04:57:03.964Z,20.3
2016-12-06T04:57:44.482Z,20.32
2016-12-06T04:58:25.008Z,20.32
2016-12-06T04:59:05.525Z,20.3
2016-12-06T04:59:46.063Z,20.3
2016-12-06T05:00:26.618Z,20.32
2016-12-06T05:01:07.122Z,20.34
2016-12-06T05:01:47.664Z,20.3
2016-12-06T05:02:28.191Z,20.33
2016-12-06T05:03:08.705Z,20.29
2016-12-06T05:03:49.263Z,20.33
2016-12-06T05:04:29.784Z,20.32
2016-12-06T05:05:10.301Z,20.33
2016-12-06T05:05:50.831Z,20.29
2016-12-06T05:06:31.362Z,20.33
2016-12-06T05:07:11.877Z,20.34
2016-12-06T05:07:52.392Z,20.34
2016-12-06T05:08:32.906Z,20.33
2016-12-06T05:09:13.466Z,20.33
2016-12-06T05:09:53.992Z,20.3
2016-12-06T05:10:34.480Z,20.33
2016-12-06T05:11:14.992Z,20.29
2016-12-06T05:11:55.535Z,20.32
2016-12-06T05:12:36.044Z,20.32
2016-12-06T05:13:16.563Z,20.29
2016-12-06T05:13:57.098Z,20.33
2016-12-06T05:14:37.598Z,20.3
2016-12-06T05:15:18.125Z,20.29
2016-12-06T05:15:58.662Z,20.3
2016-12-06T05:16:39.197Z,20.32
2016-12-06T05:17:19.712Z,20.27
2016-12-06T05:18:00.244Z,20.36
2016-12-06T05:18:40.790Z,20.36
2016-12-06T05:19:21.345Z,20.32
2016-12-06T05:20:01.867Z,20.32
2016-12-06T05:20:42.397Z,20.32
2016-12-06T05:21:22.929Z,20.32
2016-12-06T05:22:03.484Z,20.32
2016-12-06T05:22:44.044Z,20.27
2016-12-06T05:23:24.548Z,20.34
2016-12-06T05:24:05.061Z,20.39
2016-12-06T05:24:45.590Z,20.39
2016-12-06T05:25:26.131Z,20.34
2016-12-06T05:26:06.671Z,20.34
2016-12-06T05:26:47.223Z,20.32
2016-12-06T05:27:27.759Z,20.27
2016-12-06T05:28:08.297Z,20.32
2016-12-06T05:28:48.819Z,20.32
2016-12-06T05:29:29.376Z,20.3
2016-12-06T05:30:09.908Z,20.33
2016-12-06T05:30:50.413Z,20.3
2016-12-06T05:31:30.945Z,20.36
2016-12-06T05:32:11.478Z,20.33
2016-12-06T05:32:52.049Z,20.32
2016-12-06T05:33:32.567Z,20.36
2016-12-06T05:34:13.092Z,20.32
2016-12-06T05:34:53.607Z,20.32
2016-12-06T05:35:34.160Z,20.36
2016-12-06T05:36:14.673Z,20.27
2016-12-06T05:36:55.220Z,20.36
2016-12-06T05:37:35.744Z,20.4
2016-12-06T05:38:16.265Z,20.36
2016-12-06T05:38:56.788Z,20.34
2016-12-06T05:39:37.306Z,20.32
2016-12-06T05:40:17.836Z,20.32
2016-12-06T05:40:58.375Z,20.33
2016-12-06T05:41:38.928Z,20.36
2016-12-06T05:42:19.439Z,20.39
2016-12-06T05:42:59.967Z,20.34
2016-12-06T05:43:40.501Z,20.32
2016-12-06T05:44:21.017Z,20.33
2016-12-06T05:45:01.594Z,20.3
2016-12-06T05:45:42.121Z,20.34
2016-12-06T05:46:22.673Z,20.33
2016-12-06T05:47:03.231Z,20.3
2016-12-06T05:47:43.779Z,20.37
2016-12-06T05:48:24.323Z,20.29
2016-12-06T05:49:04.864Z,20.33
2016-12-06T05:49:45.377Z,20.36
2016-12-06T05:50:25.907Z,20.32
2016-12-06T05:51:06.411Z,20.3
2016-12-06T05:51:46.929Z,20.29
2016-12-06T05:52:27.449Z,20.34
2016-12-06T05:53:07.979Z,20.32
2016-12-06T05:53:48.502Z,20.32
2016-12-06T05:54:29.027Z,20.33
2016-12-06T05:55:09.558Z,20.3
2016-12-06T05:55:50.072Z,20.32
2016-12-06T05:56:30.608Z,20.36
2016-12-06T05:57:11.150Z,20.32
2016-12-06T05:57:51.697Z,20.32
2016-12-06T05:58:32.209Z,20.33
2016-12-06T05:59:12.731Z,20.32
2016-12-06T05:59:53.312Z,20.42
2016-12-06T06:00:33.846Z,20.33
2016-12-06T06:01:14.382Z,20.33
2016-12-06T06:01:54.923Z,20.37
2016-12-06T06:02:35.458Z,20.34
2016-12-06T06:03:15.965Z,20.32
2016-12-06T06:03:56.497Z,20.32
2016-12-06T06:04:37.041Z,20.3
2016-12-06T06:05:17.609Z,20.32
2016-12-06T06:05:58.173Z,20.3
2016-12-06T06:06:38.706Z,20.36
2016-12-06T06:07:19.262Z,20.32
2016-12-06T06:07:59.796Z,20.36
2016-12-06T06:08:40.368Z,20.32
2016-12-06T06:09:20.892Z,20.34
2016-12-06T06:10:01.456Z,20.29
2016-12-06T06:10:42.011Z,20.33
2016-12-06T06:11:22.579Z,20.32
2016-12-06T06:12:03.142Z,20.36
2016-12-06T06:12:43.693Z,20.34
2016-12-06T06:13:24.225Z,20.32
2016-12-06T06:14:04.787Z,20.29
2016-12-06T06:14:45.327Z,20.3
2016-12-06T06:15:25.848Z,20.32
2016-12-06T06:16:06.415Z,20.29
2016-12-06T06:16:46.937Z,20.34
2016-12-06T06:17:27.501Z,20.27
2016-12-06T06:18:08.018Z,20.29
2016-12-06T06:18:48.545Z,20.3
2016-12-06T06:19:29.072Z,20.36
2016-12-06T06:20:09.615Z,20.3
2016-12-06T06:20:50.124Z,20.32
2016-12-06T06:21:30.677Z,20.33
2016-12-06T06:22:11.194Z,20.39
2016-12-06T06:22:51.718Z,20.3
2016-12-06T06:23:32.257Z,20.32
2016-12-06T06:24:12.790Z,20.32
2016-12-06T06:24:53.321Z,20.29
2016-12-06T06:25:33.854Z,20.36
2016-12-06T06:26:14.372Z,20.36
2016-12-06T06:26:54.875Z,20.33
2016-12-06T06:27:35.400Z,20.36
2016-12-06T06:28:16.944Z,20.37
2016-12-06T06:28:56.571Z,20.4
2016-12-06T06:29:37.079Z,20.32
2016-12-06T06:30:17.599Z,20.37
2016-12-06T06:30:58.129Z,20.36
2016-12-06T06:31:38.629Z,20.42
2016-12-06T06:32:19.200Z,20.39
2016-12-06T06:32:59.702Z,20.33
2016-12-06T06:33:40.269Z,20.34
2016-12-06T06:34:20.789Z,20.42
2016-12-06T06:35:01.358Z,20.44
2016-12-06T06:35:41.888Z,20.27
2016-12-06T06:36:22.580Z,20.34
2016-12-06T06:37:03.124Z,20.36
2016-12-06T06:37:43.774Z,20.4
2016-12-06T06:38:24.340Z,20.33
2016-12-06T06:39:04.869Z,20.36
2016-12-06T06:39:45.650Z,20.34
2016-12-06T06:40:26.226Z,20.37
2016-12-06T06:41:06.820Z,20.39
2016-12-06T06:41:47.330Z,20.39
2016-12-06T06:42:27.999Z,20.42
2016-12-06T06:43:08.498Z,20.36
2016-12-06T06:43:49.021Z,20.36
2016-12-06T06:44:29.552Z,20.36
2016-12-06T06:45:10.074Z,20.39
2016-12-06T06:45:50.598Z,20.36
2016-12-06T06:46:31.119Z,20.37
2016-12-06T06:47:11.639Z,20.39
2016-12-06T06:47:52.183Z,20.39
2016-12-06T06:48:32.761Z,20.36
2016-12-06T06:49:13.292Z,20.34
2016-12-06T06:49:53.818Z,20.49
2016-12-06T06:50:34.357Z,20.37
2016-12-06T06:51:14.881Z,20.37
2016-12-06T06:51:55.428Z,20.33
2016-12-06T06:52:35.929Z,20.37
2016-12-06T06:53:16.447Z,20.48
2016-12-06T06:53:56.972Z,20.48
2016-12-06T06:54:37.506Z,20.39
2016-12-06T06:55:18.040Z,20.4
2016-12-06T06:55:58.551Z,20.34
2016-12-06T06:56:39.087Z,20.37
2016-12-06T06:57:19.629Z,20.36
2016-12-06T06:58:00.159Z,20.39
2016-12-06T06:58:40.726Z,20.42
2016-12-06T06:59:21.267Z,20.33
2016-12-06T07:00:01.798Z,20.44
2016-12-06T07:00:42.345Z,20.37
2016-12-06T07:01:22.913Z,20.36
2016-12-06T07:02:03.412Z,20.39
2016-12-06T07:02:43.922Z,20.42
2016-12-06T07:03:24.493Z,20.36
2016-12-06T07:04:05.046Z,20.32
2016-12-06T07:04:45.548Z,20.37
2016-12-06T07:05:26.085Z,20.34
2016-12-06T07:06:06.615Z,20.32
2016-12-06T07:06:47.141Z,20.36
2016-12-06T07:07:27.685Z,20.44
2016-12-06T07:08:08.207Z,20.39
2016-12-06T07:08:48.741Z,20.4
2016-12-06T07:09:29.289Z,20.39
2016-12-06T07:10:09.840Z,20.34
2016-12-06T07:10:50.360Z,20.37
2016-12-06T07:11:30.904Z,20.39
2016-12-06T07:12:11.445Z,20.34
2016-12-06T07:12:51.949Z,20.32
2016-12-06T07:13:32.495Z,20.3
2016-12-06T07:14:13.024Z,20.4
2016-12-06T07:14:53.559Z,20.42
2016-12-06T07:15:34.090Z,20.42
2016-12-06T07:16:14.601Z,20.44
2016-12-06T07:16:55.116Z,20.42
2016-12-06T07:17:35.644Z,20.37
2016-12-06T07:18:16.199Z,20.44
2016-12-06T07:18:56.711Z,20.42
2016-12-06T07:19:37.236Z,20.34
2016-12-06T07:20:17.789Z,20.42
2016-12-06T07:20:58.346Z,20.48
2016-12-06T07:21:38.876Z,20.44
2016-12-06T07:22:19.440Z,20.42
2016-12-06T07:22:59.967Z,20.44
2016-12-06T07:23:40.483Z,20.42
2016-12-06T07:24:21.010Z,20.46
2016-12-06T07:25:01.574Z,20.37
2016-12-06T07:25:42.097Z,20.4
2016-12-06T07:26:22.697Z,20.46
2016-12-06T07:27:03.244Z,20.44
2016-12-06T07:27:43.763Z,20.46
2016-12-06T07:28:24.316Z,19.08
2016-12-06T07:29:04.886Z,15.62
2016-12-06T07:29:45.408Z,13.24
2016-12-06T07:30:26.015Z,11.76
2016-12-06T07:31:06.617Z,10.72
2016-12-06T07:31:47.139Z,9.84
2016-12-06T07:32:27.687Z,9.34
2016-12-06T07:33:08.199Z,8.92
2016-12-06T07:33:48.796Z,8.72
2016-12-06T07:34:29.349Z,9
2016-12-06T07:35:09.904Z,10.39
2016-12-06T07:35:50.514Z,11.76
2016-12-06T07:36:31.077Z,13.12
2016-12-06T07:37:11.600Z,14.26
2016-12-06T07:37:52.114Z,15.3
2016-12-06T07:38:32.644Z,16.09
2016-12-06T07:39:13.244Z,16.76
2016-12-06T07:39:53.801Z,17.14
2016-12-06T07:40:34.451Z,17.65
2016-12-06T07:41:15.011Z,18
2016-12-06T07:41:55.584Z,18.23
2016-12-06T07:42:36.087Z,18.45
2016-12-06T07:43:16.608Z,18.66
2016-12-06T07:43:57.194Z,18.76
2016-12-06T07:44:37.723Z,19.01
2016-12-06T07:45:18.261Z,19.09
2016-12-06T07:45:58.861Z,19.09
2016-12-06T07:46:39.436Z,19.26
2016-12-06T07:47:19.961Z,19.26
2016-12-06T07:48:00.467Z,19.38
2016-12-06T07:48:41.010Z,19.44
2016-12-06T07:49:21.591Z,19.55
2016-12-06T07:50:02.106Z,19.42
2016-12-06T07:50:42.617Z,19.56
2016-12-06T07:51:23.144Z,19.63
2016-12-06T07:52:03.693Z,19.74
2016-12-06T07:52:44.208Z,19.78
2016-12-06T07:53:24.800Z,19.75
2016-12-06T07:54:05.343Z,19.9
2016-12-06T07:54:45.882Z,19.87
2016-12-06T07:55:26.444Z,19.78
2016-12-06T07:56:06.952Z,19.9
2016-12-06T07:56:47.525Z,19.85
2016-12-06T07:57:28.040Z,19.87
2016-12-06T07:58:08.655Z,19.93
2016-12-06T07:58:49.194Z,20.02
2016-12-06T07:59:29.717Z,19.94
2016-12-06T08:00:10.246Z,20.02
2016-12-06T08:00:50.815Z,20.07
2016-12-06T08:01:31.319Z,20.03
2016-12-06T08:02:11.872Z,20.03
2016-12-06T08:02:52.413Z,20.07
2016-12-06T08:03:32.930Z,20.02
2016-12-06T08:04:13.466Z,20.03
2016-12-06T08:04:54.026Z,20.11
2016-12-06T08:05:34.580Z,20.18
2016-12-06T08:06:15.080Z,20.1
2016-12-06T08:06:55.608Z,20.08
2016-12-06T08:07:36.142Z,20.03
2016-12-06T08:08:16.667Z,19.99
2016-12-06T08:08:57.215Z,20.04
2016-12-06T08:09:37.749Z,20.04
2016-12-06T08:10:18.305Z,20.1
2016-12-06T08:10:58.820Z,20.1
2016-12-06T08:11:39.356Z,20.04
2016-12-06T08:12:19.919Z,20.07
2016-12-06T08:13:00.463Z,20.08
2016-12-06T08:13:41.012Z,20.04
2016-12-06T08:14:21.544Z,20.03
2016-12-06T08:15:02.092Z,20.07
2016-12-06T08:15:42.586Z,20.1
2016-12-06T08:16:23.145Z,19.99
2016-12-06T08:17:03.690Z,20.1
2016-12-06T08:17:44.257Z,20.07
2016-12-06T08:18:24.796Z,20.07
2016-12-06T08:19:05.374Z,20.07
2016-12-06T08:19:45.897Z,20.04
2016-12-06T08:20:26.444Z,20.03
2016-12-06T08:21:07.042Z,20.11
2016-12-06T08:21:47.629Z,20.03
2016-12-06T08:22:28.180Z,20.11
2016-12-06T08:23:08.719Z,20.02
2016-12-06T08:23:49.262Z,20.14
2016-12-06T08:24:29.802Z,20.11
2016-12-06T08:25:10.316Z,20.03
2016-12-06T08:25:50.854Z,20.08
2016-12-06T08:26:31.473Z,20.04
2016-12-06T08:27:11.994Z,20.07
2016-12-06T08:27:52.496Z,20.07
2016-12-06T08:28:33.034Z,20.1
2016-12-06T08:29:13.569Z,20.12
2016-12-06T08:29:54.097Z,20.17
2016-12-06T08:30:34.611Z,20.18
2016-12-06T08:31:15.143Z,20.19
2016-12-06T08:31:55.667Z,20.03
2016-12-06T08:32:36.183Z,20.1
2016-12-06T08:33:16.711Z,20.17
2016-12-06T08:33:57.231Z,20.21
2016-12-06T08:34:37.734Z,20.19
2016-12-06T08:35:18.247Z,20.11
2016-12-06T08:35:58.777Z,20.08
2016-12-06T08:36:39.315Z,20.19
2016-12-06T08:37:19.824Z,20.14
2016-12-06T08:38:00.358Z,20.08
2016-12-06T08:38:47.518Z,20.08
2016-12-06T08:39:28.047Z,20.14
2016-12-06T08:40:08.583Z,20.21
2016-12-06T08:40:49.087Z,20.22
2016-12-06T08:41:29.618Z,20.24
2016-12-06T08:42:10.153Z,20.19
2016-12-06T08:42:50.646Z,20.19
2016-12-06T08:43:31.169Z,20.18
2016-12-06T08:44:11.711Z,20.21